Time;durP1;ratioP1;P1;durP2;ratioP2;P2;SDS_P1;SDS_P2;PMS_P1;PMS_P2;Temp;Humidity;BMP_temperature;BMP_pressure;BME280_temperature;BME280_humidity;BME280_pressure;Samples;Min_cycle;Max_cycle;Signal;HPM_P1;HPM_P2
2022/07/16 00:01:22;;;;;;;;;4.00;4.00;;;;;25.80;31.82;101607.97;2097095;28;45880;-54
2022/07/16 00:01:42;;;;;;;;;4.00;2.80;;;;;25.78;31.90;101611.75;2105605;28;46228;-53
2022/07/16 00:02:42;;;;;;;;;4.00;4.00;;;;;25.75;31.98;101603.81;2102016;28;47495;-54
2022/07/16 00:03:42;;;;;;;;;3.00;3.00;;;;;25.75;31.80;101609.25;2097011;28;47944;-55
2022/07/16 00:04:43;;;;;;;;;3.00;2.50;;;;;25.73;31.44;101600.34;2104810;28;47488;-52
2022/07/16 00:05:44;;;;;;;;;3.00;3.00;;;;;25.72;31.81;101606.75;2105236;28;47945;-55
2022/07/16 00:06:44;;;;;;;;;6.00;5.00;;;;;25.70;31.24;101604.16;2105535;28;47881;-55
2022/07/16 00:07:45;;;;;;;;;3.00;3.00;;;;;25.70;31.71;101606.00;2105219;28;47244;-53
2022/07/16 00:08:45;;;;;;;;;6.00;4.00;;;;;25.68;31.86;101602.50;2105556;28;47397;-54
2022/07/16 00:09:46;;;;;;;;;3.50;3.25;;;;;25.67;31.70;101607.06;2105492;28;47422;-54
2022/07/16 00:10:46;;;;;;;;;2.00;2.00;;;;;25.67;32.08;101606.19;2105182;28;47399;-50
2022/07/16 00:11:47;;;;;;;;;2.75;2.75;;;;;25.65;31.50;101603.56;2105750;28;47226;-53
2022/07/16 00:12:47;;;;;;;;;3.50;3.50;;;;;25.65;31.95;101608.13;2096311;28;47073;-51
2022/07/16 00:13:48;;;;;;;;;3.00;3.00;;;;;25.63;32.09;101608.22;2096340;28;48161;-54
2022/07/16 00:14:48;;;;;;;;;5.25;5.25;;;;;25.63;31.85;101605.50;2105510;28;48067;-54
2022/07/16 00:15:49;;;;;;;;;3.00;3.00;;;;;25.62;32.16;101603.78;2105109;28;47762;-54
2022/07/16 00:16:49;;;;;;;;;2.00;2.00;;;;;25.61;32.30;101603.88;2105318;28;47232;-54
2022/07/16 00:19:15;;;;;;;;;4.00;4.00;;;;;25.60;31.95;101616.63;2087848;28;47294;-53
2022/07/16 00:19:16;;;;;;;;;2.00;2.00;;;;;25.59;32.11;101601.28;2097817;28;47740;-51
2022/07/16 00:20:16;;;;;;;;;1.80;1.80;;;;;25.58;32.11;101604.97;2105055;28;48085;-54
2022/07/16 00:21:17;;;;;;;;;3.00;3.00;;;;;25.57;32.32;101600.53;2105391;28;47228;-55
2022/07/16 00:22:17;;;;;;;;;3.25;3.25;;;;;25.56;32.28;101597.91;2096104;28;47046;-53
2022/07/16 00:23:18;;;;;;;;;3.25;3.25;;;;;25.56;32.01;101601.50;2096333;28;48173;-53
2022/07/16 00:24:19;;;;;;;;;5.25;3.25;;;;;25.56;32.27;101604.22;2105295;28;47563;-54
2022/07/16 00:25:19;;;;;;;;;5.20;4.00;;;;;25.55;32.36;101602.50;2105216;28;48230;-53
2022/07/16 00:26:20;;;;;;;;;3.00;3.00;;;;;25.54;31.75;101606.19;2105720;28;45574;-50
2022/07/16 00:27:20;;;;;;;;;3.50;3.50;;;;;25.51;31.89;101603.66;2105229;28;47856;-54
2022/07/16 00:28:21;;;;;;;;;5.00;4.00;;;;;25.51;31.90;101604.53;2105057;28;47075;-55
2022/07/16 00:29:22;;;;;;;;;3.00;3.00;;;;;25.50;32.28;101601.91;2105277;28;47330;-54
2022/07/16 00:30:22;;;;;;;;;2.20;2.20;;;;;25.47;32.29;101602.16;2096319;28;47356;-53
2022/07/16 00:31:23;;;;;;;;;4.25;4.25;;;;;25.47;32.16;101605.72;2079821;28;47334;-53
2022/07/16 00:32:23;;;;;;;;;4.50;4.50;;;;;25.45;32.16;101599.53;2095857;28;48020;-55
2022/07/16 00:33:23;;;;;;;;;4.50;4.50;;;;;25.45;32.05;101604.97;2105015;28;47341;-54
2022/07/16 00:34:24;;;;;;;;;3.25;3.25;;;;;25.45;32.33;101601.38;2105373;28;47975;-53
2022/07/16 00:35:24;;;;;;;;;5.75;5.75;;;;;25.43;31.84;101600.63;2105079;28;47616;-54
2022/07/16 00:36:25;;;;;;;;;5.25;5.25;;;;;25.41;32.27;101598.03;2105196;28;47164;-54
2022/07/16 00:37:25;;;;;;;;;6.25;5.50;;;;;25.40;32.52;101604.41;2105308;28;47963;-54
2022/07/16 00:38:25;;;;;;;;;4.25;4.00;;;;;25.39;32.38;101602.66;2104911;28;47202;-55
2022/07/16 00:39:26;;;;;;;;;6.75;6.75;;;;;25.39;32.39;101602.66;2105082;28;47270;-54
2022/07/16 00:40:26;;;;;;;;;3.00;3.00;;;;;25.38;32.60;101600.94;2105303;28;47600;-54
2022/07/16 00:41:27;;;;;;;;;4.00;4.00;;;;;25.37;32.73;101601.91;2104716;28;47851;-54
2022/07/16 00:42:27;;;;;;;;;6.25;6.25;;;;;25.35;32.43;101598.44;2105259;28;47841;-53
2022/07/16 00:43:27;;;;;;;;;7.00;7.00;;;;;25.35;32.47;101600.28;2104996;28;47203;-55
2022/07/16 00:44:28;;;;;;;;;4.50;4.50;;;;;25.33;32.43;101611.25;2106647;27;47056;-51
2022/07/16 00:45:28;;;;;;;;;4.00;4.00;;;;;25.32;32.30;101604.09;2105106;28;47911;-54
2022/07/16 00:46:29;;;;;;;;;5.00;5.00;;;;;25.32;32.62;101600.50;2105082;28;47505;-50
2022/07/16 00:47:29;;;;;;;;;6.00;5.50;;;;;25.30;32.42;101602.47;2095833;28;47904;-54
2022/07/16 00:48:30;;;;;;;;;5.00;4.50;;;;;25.28;32.68;101604.38;2095615;28;47990;-48
2022/07/16 00:49:30;;;;;;;;;5.00;5.00;;;;;25.28;32.65;101607.97;2104073;28;47482;-53
2022/07/16 00:50:32;;;;;;;;;5.50;5.50;;;;;25.27;32.77;101610.81;2105424;28;47817;-54
2022/07/16 00:51:34;;;;;;;;;5.20;5.20;;;;;25.27;32.53;101605.38;2104720;27;47884;-51
2022/07/16 00:52:36;;;;;;;;;5.00;5.00;;;;;25.27;32.48;101608.09;2096170;28;47299;-54
2022/07/16 00:53:37;;;;;;;;;3.20;3.20;;;;;25.27;32.93;101610.81;2104381;28;47572;-54
2022/07/16 00:54:38;;;;;;;;;5.20;4.20;;;;;25.28;32.67;101607.09;2099285;28;47901;-52
2022/07/16 00:55:39;;;;;;;;;5.80;5.80;;;;;25.27;32.70;101605.38;2096474;28;47445;-53
2022/07/16 00:56:40;;;;;;;;;2.50;2.50;;;;;25.27;32.60;101608.97;2104848;28;47752;-50
2022/07/16 00:57:40;;;;;;;;;4.00;4.00;;;;;25.25;32.67;101605.47;2104783;28;46675;-52
2022/07/16 00:58:43;;;;;;;;;3.50;3.50;;;;;25.25;32.74;101610.91;2104914;28;47559;-53
2022/07/16 00:59:44;;;;;;;;;4.40;4.40;;;;;25.24;32.76;101609.19;2078449;28;47778;-52
2022/07/16 01:00:44;;;;;;;;;4.00;4.00;;;;;25.21;32.48;101607.53;2079069;28;47814;-54
2022/07/16 01:01:45;;;;;;;;;5.00;3.75;;;;;25.20;33.22;101613.97;2095798;28;47652;-53
2022/07/16 01:02:45;;;;;;;;;4.00;4.00;;;;;25.20;32.80;101607.66;2097441;28;47764;-52
2022/07/16 01:03:46;;;;;;;;;2.50;2.50;;;;;25.18;33.05;101610.47;2093096;28;46805;-54
2022/07/16 01:04:47;;;;;;;;;5.75;4.25;;;;;25.19;32.60;101603.19;2095186;28;47655;-54
2022/07/16 01:05:48;;;;;;;;;5.00;4.00;;;;;25.18;32.76;101613.19;2104805;28;47396;-55
2022/07/16 01:06:50;;;;;;;;;6.00;4.50;;;;;25.17;33.00;101605.16;2105111;28;47062;-54
2022/07/16 01:07:51;;;;;;;;;2.80;2.80;;;;;25.18;32.87;101609.63;2104725;28;47799;-55
2022/07/16 01:08:52;;;;;;;;;3.00;3.00;;;;;25.16;32.97;101609.72;2105412;28;47654;-54
2022/07/16 01:09:53;;;;;;;;;1.80;1.80;;;;;25.16;32.95;101608.84;2105125;28;47451;-55
2022/07/16 01:10:55;;;;;;;;;3.00;3.00;;;;;25.15;32.76;101597.09;2104825;28;47853;-54
2022/07/16 01:11:55;;;;;;;;;2.80;2.80;;;;;25.16;32.86;101601.56;2105146;28;47862;-54
2022/07/16 01:12:59;;;;;;;;;4.50;4.50;;;;;25.15;33.09;101607.09;2095746;28;47344;-53
2022/07/16 01:14:02;;;;;;;;;5.00;5.00;;;;;25.14;32.64;101608.94;2096191;28;47446;-52
2022/07/16 01:15:03;;;;;;;;;4.40;4.40;;;;;25.13;32.46;101604.47;2096225;28;47558;-51
2022/07/16 01:16:04;;;;;;;;;4.40;4.40;;;;;25.12;32.57;101610.88;2094797;28;46791;-50
2022/07/16 01:17:05;;;;;;;;;2.75;2.75;;;;;25.13;33.03;101611.75;2078583;28;47921;-52
2022/07/16 01:18:05;;;;;;;;;4.00;4.00;;;;;25.12;32.92;101610.88;2087174;28;47663;-52
2022/07/16 01:19:08;;;;;;;;;5.75;5.00;;;;;25.11;32.72;101611.00;2104481;28;47869;-54
2022/07/16 01:20:08;;;;;;;;;3.00;3.00;;;;;25.10;33.08;101614.69;2104917;28;47605;-54
2022/07/16 01:21:09;;;;;;;;;4.50;4.50;;;;;25.09;32.86;101613.81;2105146;28;47307;-55
2022/07/16 01:22:17;;;;;;;;;4.75;4.75;;;;;25.09;32.81;101610.22;2104929;28;47885;-54
2022/07/16 01:23:19;;;;;;;;;3.60;3.60;;;;;25.08;33.20;101605.78;2104962;28;47516;-55
2022/07/16 01:24:20;;;;;;;;;3.40;3.40;;;;;25.07;33.15;101609.47;2105017;28;48092;-52
2022/07/16 01:25:20;;;;;;;;;4.00;4.00;;;;;25.04;33.05;101604.25;2104017;28;47424;-50
2022/07/16 01:26:21;;;;;;;;;4.00;3.50;;;;;25.03;33.25;101608.81;2104903;28;47701;-53
2022/07/16 01:27:21;;;;;;;;;3.00;2.00;;;;;25.03;32.89;101605.19;2104874;28;47706;-55
2022/07/16 01:28:22;;;;;;;;;5.50;4.00;;;;;25.02;33.03;101608.91;2104867;28;47746;-52
2022/07/16 01:29:23;;;;;;;;;5.25;5.25;;;;;25.01;33.14;101604.44;2105201;28;47720;-54
2022/07/16 01:30:23;;;;;;;;;4.25;4.25;;;;;25.02;32.89;101603.47;2105070;28;47936;-53
2022/07/16 01:31:24;;;;;;;;;4.00;4.00;;;;;25.01;33.27;101607.16;2105045;27;47120;-51
2022/07/16 01:32:24;;;;;;;;;2.75;2.75;;;;;25.00;33.16;101610.81;2112891;27;47300;-55
2022/07/16 01:33:30;;;;;;;;;2.75;2.75;;;;;25.00;33.34;101610.81;2104535;28;47802;-54
2022/07/16 01:34:31;;;;;;;;;3.60;3.60;;;;;25.00;33.13;101610.81;2104793;28;47632;-50
2022/07/16 01:35:31;;;;;;;;;3.00;3.00;;;;;24.98;33.20;101612.78;2104704;28;48195;-53
2022/07/16 01:36:32;;;;;;;;;3.00;3.00;;;;;24.96;33.01;101607.44;2077592;28;47205;-49
2022/07/16 01:37:33;;;;;;;;;3.00;3.00;;;;;24.95;33.14;101612.00;2078695;28;47559;-53
2022/07/16 01:38:34;;;;;;;;;5.75;4.75;;;;;24.94;33.51;101614.84;2103433;28;47561;-52
2022/07/16 01:39:37;;;;;;;;;3.60;3.60;;;;;24.92;32.93;101617.66;2104659;28;47633;-54
2022/07/16 01:40:38;;;;;;;;;4.80;4.00;;;;;24.93;33.43;101613.09;2104937;28;47558;-52
2022/07/16 01:41:38;;;;;;;;;3.00;3.00;;;;;24.92;33.14;101614.06;2104356;28;47486;-54
2022/07/16 01:42:39;;;;;;;;;3.00;3.00;;;;;24.92;33.28;101611.34;2104810;28;47252;-55
2022/07/16 01:43:39;;;;;;;;;3.75;3.75;;;;;24.91;32.94;101620.47;2104432;28;47106;-51
2022/07/16 01:44:40;;;;;;;;;3.50;3.25;;;;;24.88;33.35;101610.69;2104850;28;47438;-53
2022/07/16 01:45:40;;;;;;;;;3.75;3.75;;;;;24.87;33.16;101611.66;2104803;28;47683;-53
2022/07/16 01:46:41;;;;;;;;;4.00;3.50;;;;;24.85;33.30;101613.59;2104622;28;47743;-51
2022/07/16 01:47:41;;;;;;;;;3.25;3.25;;;;;24.85;33.45;101607.31;2095445;28;47175;-52
2022/07/16 01:48:42;;;;;;;;;3.00;3.00;;;;;24.83;33.34;101612.84;2086762;28;47612;-53
2022/07/16 01:49:42;;;;;;;;;5.00;4.00;;;;;24.81;33.21;101620.22;2090026;28;47829;-53
2022/07/16 01:50:43;;;;;;;;;3.00;3.00;;;;;24.79;33.75;101615.88;2087410;28;47345;-52
2022/07/16 01:51:44;;;;;;;;;4.00;3.75;;;;;24.77;33.50;101610.53;2095582;28;47644;-54
2022/07/16 01:52:44;;;;;;;;;6.00;6.00;;;;;24.77;33.51;101618.66;2096313;28;47590;-54
2022/07/16 01:53:44;;;;;;;;;4.00;4.00;;;;;24.76;33.33;101613.34;2096771;28;47360;-55
2022/07/16 01:54:47;;;;;;;;;4.75;4.25;;;;;24.76;33.26;101616.06;2069131;28;48065;-53
2022/07/16 01:55:48;;;;;;;;;6.00;4.40;;;;;24.73;33.63;101614.44;2071563;28;46209;-52
2022/07/16 01:56:48;;;;;;;;;4.00;4.00;;;;;24.72;33.50;101615.41;2096182;28;47667;-53
2022/07/16 01:57:49;;;;;;;;;5.00;5.00;;;;;24.71;33.53;101613.66;2099314;28;47594;-53
2022/07/16 01:58:49;;;;;;;;;4.25;4.25;;;;;24.70;33.47;101621.91;2100899;28;47608;-52
2022/07/16 01:59:50;;;;;;;;;4.00;4.00;;;;;24.68;33.57;101616.59;2095569;28;48109;-54
2022/07/16 02:00:50;;;;;;;;;4.75;4.75;;;;;24.66;33.38;101618.53;2097617;28;47292;-53
2022/07/16 02:01:51;;;;;;;;;4.75;4.75;;;;;24.65;33.92;101619.50;2104772;28;47799;-54
2022/07/16 02:02:51;;;;;;;;;6.00;5.00;;;;;24.64;33.66;101617.75;2098626;28;47559;-50
2022/07/16 02:03:51;;;;;;;;;5.00;5.00;;;;;24.63;33.47;101618.72;2096266;28;47761;-53
2022/07/16 02:04:52;;;;;;;;;5.00;4.75;;;;;24.61;33.96;101624.25;2078024;28;47510;-54
2022/07/16 02:05:52;;;;;;;;;6.75;6.00;;;;;24.60;33.88;101618.94;2079278;28;46352;-54
2022/07/16 02:06:53;;;;;;;;;4.50;4.25;;;;;24.57;33.70;101617.28;2095890;28;46138;-52
2022/07/16 02:07:53;;;;;;;;;7.00;5.75;;;;;24.56;33.81;101614.69;2095930;28;47275;-52
2022/07/16 02:08:54;;;;;;;;;4.00;4.00;;;;;24.54;33.81;101617.50;2096125;28;47558;-52
2022/07/16 02:09:55;;;;;;;;;5.25;4.25;;;;;24.52;34.08;101618.56;2096363;28;47414;-54
2022/07/16 02:10:55;;;;;;;;;4.75;4.75;;;;;24.52;33.83;101618.56;2096471;28;47918;-49
2022/07/16 02:11:55;;;;;;;;;7.00;5.50;;;;;24.52;33.69;101619.47;2087434;28;47457;-53
2022/07/16 02:12:56;;;;;;;;;5.00;5.00;;;;;24.51;34.06;101620.41;2087259;28;47165;-51
2022/07/16 02:13:56;;;;;;;;;5.25;5.25;;;;;24.49;33.98;101618.75;2096623;28;48011;-50
2022/07/16 02:14:57;;;;;;;;;4.75;4.75;;;;;24.48;33.77;101614.31;2096302;28;47177;-54
2022/07/16 02:15:57;;;;;;;;;7.75;5.00;;;;;24.48;33.97;101614.31;2086514;28;47807;-53
2022/07/16 02:16:58;;;;;;;;;6.25;5.50;;;;;24.47;34.04;101616.16;2086652;28;47685;-52
2022/07/16 02:17:58;;;;;;;;;3.00;3.00;;;;;24.46;34.18;101610.84;2096069;28;47437;-53
2022/07/16 02:18:59;;;;;;;;;5.25;5.25;;;;;24.45;33.75;101609.09;2095747;28;47335;-53
2022/07/16 02:20:00;;;;;;;;;5.25;4.25;;;;;24.44;33.97;101610.06;2096054;28;48027;-54
2022/07/16 02:21:00;;;;;;;;;4.60;4.60;;;;;24.43;34.10;101616.47;2096388;28;47507;-54
2022/07/16 02:22:01;;;;;;;;;4.75;4.75;;;;;24.42;34.13;101612.00;2096152;28;47216;-53
2022/07/16 02:23:01;;;;;;;;;6.75;6.50;;;;;24.43;34.24;101611.03;2096270;28;47588;-53
2022/07/16 02:24:02;;;;;;;;;7.50;7.50;;;;;24.42;34.42;101612.00;2087934;28;47524;-49
2022/07/16 02:25:04;;;;;;;;;5.00;5.00;;;;;24.41;33.86;101616.56;2086842;28;47967;-54
2022/07/16 02:26:04;;;;;;;;;8.20;7.00;;;;;24.40;34.24;101611.25;2087597;28;48314;-53
2022/07/16 02:27:05;;;;;;;;;7.00;7.00;;;;;24.38;34.20;101614.03;2093413;28;47594;-53
2022/07/16 02:28:05;;;;;;;;;6.00;6.00;;;;;24.38;34.28;101605.91;2096074;28;47251;-54
2022/07/16 02:29:06;;;;;;;;;6.25;6.25;;;;;24.37;34.49;101615.00;2096189;28;47823;-53
2022/07/16 02:30:07;;;;;;;;;6.75;5.25;;;;;24.36;34.09;101607.84;2099407;28;47513;-54
2022/07/16 02:31:08;;;;;;;;;4.80;4.20;;;;;24.35;34.00;101614.25;2104682;28;47521;-54
2022/07/16 02:32:08;;;;;;;;;6.25;5.00;;;;;24.33;34.49;101617.06;2096993;28;47808;-52
2022/07/16 02:33:10;;;;;;;;;6.00;6.00;;;;;24.32;34.33;101615.31;2096439;28;47470;-54
2022/07/16 02:34:10;;;;;;;;;7.80;7.80;;;;;24.30;34.38;101617.25;2096039;28;47600;-54
2022/07/16 02:35:10;;;;;;;;;5.00;5.00;;;;;24.29;34.43;101614.63;2095968;28;47745;-53
2022/07/16 02:36:11;;;;;;;;;7.75;7.75;;;;;24.29;34.45;101620.03;2096166;28;47505;-53
2022/07/16 02:37:12;;;;;;;;;5.25;3.75;;;;;24.28;34.33;101621.03;2096309;28;47324;-54
2022/07/16 02:38:13;;;;;;;;;6.00;5.00;;;;;24.28;34.45;101615.59;2095960;28;48314;-51
2022/07/16 02:39:14;;;;;;;;;5.20;4.20;;;;;24.27;34.58;101622.00;2096359;28;47749;-52
2022/07/16 02:40:14;;;;;;;;;3.00;3.00;;;;;24.25;34.39;101613.06;2095773;28;47460;-52
2022/07/16 02:41:15;;;;;;;;;5.25;4.25;;;;;24.25;34.62;101618.47;2096298;28;47521;-50
2022/07/16 02:42:15;;;;;;;;;7.75;6.00;;;;;24.25;34.68;101621.19;2095966;28;47934;-54
2022/07/16 02:43:16;;;;;;;;;5.00;5.00;;;;;24.24;34.61;101623.03;2096382;28;47643;-54
2022/07/16 02:44:16;;;;;;;;;6.75;5.50;;;;;24.23;34.55;101618.59;2095930;28;47411;-53
2022/07/16 02:45:17;;;;;;;;;5.75;5.75;;;;;24.21;34.78;101612.41;2095986;28;47280;-54
2022/07/16 02:46:17;;;;;;;;;6.00;5.00;;;;;24.22;34.69;101619.56;2095108;28;47357;-53
2022/07/16 02:47:17;;;;;;;;;6.25;6.25;;;;;24.21;34.67;101623.25;2096110;28;47239;-53
2022/07/16 02:48:18;;;;;;;;;5.00;5.00;;;;;24.21;34.83;101620.53;2067772;28;48097;-52
2022/07/16 02:49:18;;;;;;;;;5.00;5.00;;;;;24.19;34.44;101624.31;2070057;28;47782;-52
2022/07/16 02:50:19;;;;;;;;;6.00;5.00;;;;;24.18;34.65;101620.72;2095664;28;47405;-54
2022/07/16 02:51:20;;;;;;;;;5.00;5.00;;;;;24.17;34.65;101612.69;2103091;27;45098;-53
2022/07/16 02:52:20;;;;;;;;;4.00;4.00;;;;;24.16;34.71;101617.25;2105194;28;45767;-54
2022/07/16 02:53:20;;;;;;;;;7.75;6.00;;;;;24.16;34.52;101625.41;2101446;28;47395;-54
2022/07/16 02:54:21;;;;;;;;;7.00;4.75;;;;;24.15;34.91;101626.38;2093485;28;47243;-51
2022/07/16 02:55:21;;;;;;;;;3.25;3.25;;;;;24.15;34.94;101622.78;2103392;28;47867;-54
2022/07/16 02:56:22;;;;;;;;;5.75;5.00;;;;;24.14;34.55;101624.63;2104203;28;47243;-51
2022/07/16 02:57:22;;;;;;;;;5.50;4.75;;;;;24.14;34.76;101623.72;2095293;28;47432;-52
2022/07/16 02:58:23;;;;;;;;;5.50;4.00;;;;;24.13;34.89;101624.69;2095366;28;47626;-52
2022/07/16 02:59:23;;;;;;;;;6.50;5.50;;;;;24.12;34.89;101623.81;2099747;28;47448;-53
2022/07/16 03:00:25;;;;;;;;;5.00;5.00;;;;;24.10;34.48;101616.75;2095356;28;47764;-54
2022/07/16 03:01:25;;;;;;;;;3.40;3.20;;;;;24.08;34.76;101616.88;2101630;27;47625;-52
2022/07/16 03:02:25;;;;;;;;;5.50;4.50;;;;;24.08;34.92;101611.44;2110601;27;47625;-55
2022/07/16 03:03:26;;;;;;;;;4.50;4.50;;;;;24.07;34.68;101618.72;2104335;28;47527;-54
2022/07/16 03:04:27;;;;;;;;;4.00;4.00;;;;;24.06;34.96;101611.53;2105245;27;47153;-52
2022/07/16 03:05:28;;;;;;;;;4.00;4.00;;;;;24.05;34.86;101609.81;2104452;28;47583;-53
2022/07/16 03:06:28;;;;;;;;;5.20;5.20;;;;;24.05;35.19;101617.06;2104279;28;47240;-55
2022/07/16 03:07:28;;;;;;;;;7.50;6.75;;;;;24.03;35.20;101619.88;2104109;28;47910;-51
2022/07/16 03:08:29;;;;;;;;;6.00;5.25;;;;;24.03;35.04;101619.88;2104353;28;47542;-48
2022/07/16 03:09:29;;;;;;;;;3.75;3.75;;;;;24.01;35.01;101615.50;2095202;28;47120;-52
2022/07/16 03:10:29;;;;;;;;;4.75;4.75;;;;;24.01;35.05;101612.78;2094797;28;47342;-54
2022/07/16 03:11:30;;;;;;;;;7.25;6.00;;;;;24.02;35.08;101614.56;2094374;28;47954;-51
2022/07/16 03:12:30;;;;;;;;;3.75;3.75;;;;;24.00;35.05;101608.34;2093950;28;47675;-52
2022/07/16 03:13:31;;;;;;;;;3.00;3.00;;;;;24.00;35.05;101619.19;2104252;28;47443;-51
2022/07/16 03:14:31;;;;;;;;;5.00;5.00;;;;;23.98;35.07;101610.28;2104324;28;47626;-51
2022/07/16 03:15:31;;;;;;;;;3.25;3.25;;;;;23.95;35.04;101608.63;2103719;28;47436;-52
2022/07/16 03:16:32;;;;;;;;;4.00;4.00;;;;;23.94;35.13;101603.31;2104212;28;47755;-52
2022/07/16 03:17:32;;;;;;;;;7.25;5.50;;;;;23.95;35.51;101607.78;2103990;28;47804;-52
2022/07/16 03:18:33;;;;;;;;;3.00;3.00;;;;;23.95;35.52;101616.78;2105147;27;47574;-50
2022/07/16 03:19:33;;;;;;;;;3.00;3.00;;;;;23.94;35.28;101611.44;2104345;28;47979;-50
2022/07/16 03:20:34;;;;;;;;;4.00;4.00;;;;;23.93;35.19;101617.84;2103785;28;48113;-52
2022/07/16 03:21:34;;;;;;;;;4.50;4.00;;;;;23.91;34.90;101623.38;2104153;28;47520;-54
2022/07/16 03:22:35;;;;;;;;;7.00;4.25;;;;;23.90;35.25;101621.63;2104060;28;48052;-51
2022/07/16 03:23:35;;;;;;;;;3.25;3.25;;;;;23.90;35.28;101615.34;2104078;28;47401;-51
2022/07/16 03:24:35;;;;;;;;;6.00;3.75;;;;;23.89;35.35;101624.44;2095381;28;47476;-53
2022/07/16 03:25:36;;;;;;;;;4.50;3.25;;;;;23.87;35.32;101619.09;2101042;28;47468;-54
2022/07/16 03:26:36;;;;;;;;;3.25;3.25;;;;;23.87;35.42;101616.38;2101543;28;47392;-54
2022/07/16 03:27:37;;;;;;;;;4.00;4.00;;;;;23.86;35.35;101617.34;2104759;27;48234;-57
2022/07/16 03:28:38;;;;;;;;;3.75;3.75;;;;;23.85;35.33;101612.91;2105974;28;47028;-53
2022/07/16 03:29:39;;;;;;;;;6.40;6.40;;;;;23.84;35.44;101613.88;2105478;28;48008;-52
2022/07/16 03:30:40;;;;;;;;;6.60;4.80;;;;;23.83;35.35;101617.56;2105681;28;47636;-53
2022/07/16 03:31:40;;;;;;;;;4.00;3.75;;;;;23.83;35.41;101622.97;2105578;28;47064;-51
2022/07/16 03:32:41;;;;;;;;;3.50;3.50;;;;;23.81;35.41;101619.50;2108826;27;47591;-51
2022/07/16 03:33:41;;;;;;;;;3.60;3.60;;;;;23.80;35.51;101616.88;2106577;27;47534;-52
2022/07/16 03:34:42;;;;;;;;;4.50;4.50;;;;;23.78;35.57;101625.13;2105782;28;47718;-53
2022/07/16 03:35:42;;;;;;;;;5.00;4.25;;;;;23.77;35.48;101615.25;2105608;28;47772;-52
2022/07/16 03:36:43;;;;;;;;;2.25;2.25;;;;;23.75;35.84;101612.59;2081844;28;46486;-52
2022/07/16 03:39:05;;;;;;;;;5.80;5.80;;;;;23.73;35.76;101616.38;2096998;28;47754;-52
2022/07/16 03:40:06;;;;;;;;;6.00;5.00;;;;;23.72;35.83;101612.78;2097951;28;47258;-52
2022/07/16 03:41:07;;;;;;;;;3.60;3.60;;;;;23.72;35.77;101614.63;2073033;28;47429;-52
2022/07/16 03:42:07;;;;;;;;;3.25;3.25;;;;;23.71;35.85;101612.91;2080546;28;47902;-53
2022/07/16 03:43:08;;;;;;;;;4.00;4.00;;;;;23.71;35.90;101612.91;2105418;28;47380;-53
2022/07/16 03:44:09;;;;;;;;;5.00;5.00;;;;;23.70;35.82;101611.16;2105670;28;45537;-52
2022/07/16 03:45:10;;;;;;;;;3.00;3.00;;;;;23.70;35.64;101619.28;2105644;28;47846;-53
2022/07/16 03:46:13;;;;;;;;;2.75;2.75;;;;;23.68;35.82;101613.97;2104737;28;47517;-56
2022/07/16 03:47:14;;;;;;;;;4.00;3.00;;;;;23.67;35.90;101614.06;2105775;28;47815;-54
2022/07/16 03:48:14;;;;;;;;;4.25;4.00;;;;;23.66;35.98;101610.47;2087115;28;47431;-52
2022/07/16 03:49:15;;;;;;;;;5.25;5.25;;;;;23.67;36.08;101611.34;2085892;28;48252;-52
2022/07/16 03:50:16;;;;;;;;;4.25;4.25;;;;;23.66;35.94;101615.91;2105492;28;47521;-54
2022/07/16 03:51:16;;;;;;;;;4.25;4.25;;;;;23.66;36.15;101615.91;2105197;28;47675;-53
2022/07/16 03:52:17;;;;;;;;;5.75;4.75;;;;;23.66;36.14;101617.75;2105370;28;47369;-51
2022/07/16 03:53:17;;;;;;;;;1.00;1.00;;;;;23.68;36.06;101618.50;2105765;28;46135;-53
2022/07/16 03:54:17;;;;;;;;;4.00;4.00;;;;;23.67;36.19;101614.06;2105583;27;47905;-53
2022/07/16 03:55:18;;;;;;;;;4.00;4.00;;;;;23.67;35.88;101611.34;2105807;28;47497;-51
2022/07/16 03:56:18;;;;;;;;;4.50;4.50;;;;;23.67;36.00;101616.78;2105361;28;47567;-51
2022/07/16 03:57:19;;;;;;;;;6.00;3.50;;;;;23.68;36.04;101615.81;2105391;28;47891;-50
2022/07/16 03:58:19;;;;;;;;;5.25;5.00;;;;;23.68;35.94;101621.22;2105592;28;47523;-54
2022/07/16 03:59:19;;;;;;;;;5.00;5.00;;;;;23.68;35.97;101619.38;2105561;28;47663;-52
2022/07/16 04:00:20;;;;;;;;;4.25;4.25;;;;;23.68;36.08;101619.38;2087593;28;47522;-49
2022/07/16 04:01:20;;;;;;;;;3.00;3.00;;;;;23.69;35.99;101620.25;2086505;28;47395;-52
2022/07/16 04:02:21;;;;;;;;;5.00;5.00;;;;;23.67;36.06;101620.34;2113222;27;47462;-54
2022/07/16 04:03:22;;;;;;;;;5.50;5.50;;;;;23.68;35.90;101613.09;2105503;28;47438;-54
2022/07/16 04:04:23;;;;;;;;;3.80;3.80;;;;;23.67;36.01;101616.78;2105478;28;47489;-52
2022/07/16 04:05:23;;;;;;;;;5.00;5.00;;;;;23.65;36.22;101618.72;2105637;28;48270;-53
2022/07/16 04:06:24;;;;;;;;;3.00;3.00;;;;;23.62;36.13;101621.59;2105447;28;48115;-50
2022/07/16 04:07:25;;;;;;;;;5.40;5.40;;;;;23.62;35.95;101627.00;2098827;28;47324;-54
2022/07/16 04:08:25;;;;;;;;;4.50;4.50;;;;;23.61;36.11;101618.00;2104901;28;47515;-54
2022/07/16 04:09:26;;;;;;;;;6.00;6.00;;;;;23.59;36.30;101621.78;2105324;28;47306;-55
2022/07/16 04:10:26;;;;;;;;;6.00;6.00;;;;;23.59;36.26;101629.91;2105400;28;47469;-54
2022/07/16 04:11:26;;;;;;;;;4.00;4.00;;;;;23.58;36.33;101626.34;2105109;28;47686;-53
2022/07/16 04:12:27;;;;;;;;;4.00;4.00;;;;;23.58;36.26;101626.34;2110592;27;47433;-53
2022/07/16 04:13:27;;;;;;;;;4.75;4.75;;;;;23.58;35.97;101629.03;2113842;27;47318;-54
2022/07/16 04:14:28;;;;;;;;;6.00;5.75;;;;;23.58;36.64;101628.16;2106297;27;47341;-50
2022/07/16 04:15:28;;;;;;;;;5.25;5.25;;;;;23.57;35.93;101627.28;2105718;27;48032;-54
2022/07/16 04:16:28;;;;;;;;;5.25;5.25;;;;;23.56;36.45;101630.06;2105411;28;47160;-50
2022/07/16 04:17:29;;;;;;;;;4.25;4.25;;;;;23.57;36.14;101637.25;2104888;28;47600;-51
2022/07/16 04:18:29;;;;;;;;;4.00;4.00;;;;;23.57;36.13;101634.53;2105464;28;47979;-51
2022/07/16 04:19:30;;;;;;;;;4.50;4.50;;;;;23.55;36.32;101637.34;2105466;28;47941;-54
2022/07/16 04:20:30;;;;;;;;;5.75;5.75;;;;;23.56;36.45;101639.06;2101170;28;47887;-54
2022/07/16 04:21:30;;;;;;;;;4.75;4.00;;;;;23.57;36.30;101638.09;2104575;28;47320;-54
2022/07/16 04:22:31;;;;;;;;;6.00;4.00;;;;;23.57;36.75;101642.66;2105101;28;47091;-51
2022/07/16 04:23:32;;;;;;;;;6.00;6.00;;;;;23.57;36.19;101639.94;2104662;28;48170;-50
2022/07/16 04:24:32;;;;;;;;;5.00;5.00;;;;;23.56;36.81;101639.06;2104837;28;47707;-53
2022/07/16 04:25:33;;;;;;;;;6.75;6.75;;;;;23.57;36.46;101638.09;2096142;28;47499;-54
2022/07/16 04:26:33;;;;;;;;;4.00;4.00;;;;;23.57;36.61;101631.81;2095894;28;47801;-52
2022/07/16 04:27:34;;;;;;;;;7.25;7.00;;;;;23.56;36.59;101639.06;2105335;28;47130;-54
2022/07/16 04:28:34;;;;;;;;;8.75;6.00;;;;;23.56;36.65;101635.50;2105129;28;47315;-53
2022/07/16 04:29:35;;;;;;;;;6.00;5.75;;;;;23.56;36.47;101640.91;2105250;28;47750;-52
2022/07/16 04:30:35;;;;;;;;;5.25;5.00;;;;;23.55;36.68;101645.47;2105219;28;47494;-54
2022/07/16 04:31:35;;;;;;;;;5.00;4.00;;;;;23.54;36.46;101649.16;2105130;28;47604;-53
2022/07/16 04:32:38;;;;;;;;;5.25;5.25;;;;;23.54;36.73;101643.72;2098138;28;47204;-51
2022/07/16 04:33:38;;;;;;;;;6.00;5.40;;;;;23.54;36.84;101649.16;2097964;28;47310;-51
2022/07/16 04:34:38;;;;;;;;;4.50;4.50;;;;;23.54;36.85;101653.69;2105507;27;47459;-51
2022/07/16 04:35:39;;;;;;;;;4.00;4.00;;;;;23.53;36.67;101657.38;2105636;28;47615;-53
2022/07/16 04:36:39;;;;;;;;;6.50;5.00;;;;;23.53;36.83;101649.25;2105134;28;47174;-54
2022/07/16 04:37:40;;;;;;;;;6.50;5.75;;;;;23.52;36.63;101648.38;2105219;28;47878;-54
2022/07/16 04:38:41;;;;;;;;;4.40;4.40;;;;;23.53;36.99;101649.25;2104930;27;47323;-54
2022/07/16 04:39:41;;;;;;;;;4.50;4.50;;;;;23.51;36.77;101649.34;2104585;27;47776;-53
2022/07/16 04:40:41;;;;;;;;;5.75;3.75;;;;;23.50;36.71;101652.97;2105200;28;47390;-54
2022/07/16 04:41:42;;;;;;;;;5.00;4.25;;;;;23.48;36.90;101654.91;2106192;27;47101;-52
2022/07/16 04:42:43;;;;;;;;;6.50;5.50;;;;;23.48;36.87;101654.91;2105019;28;47487;-53
2022/07/16 04:43:44;;;;;;;;;5.00;5.00;;;;;23.46;36.87;101646.88;2105098;28;47709;-50